createdAt,value
2023-04-02T00:02:26.320Z,2.91
2023-04-02T00:05:30.660Z,2.96
2023-04-02T00:08:20.799Z,2.98
2023-04-02T00:10:50.879Z,2.59
2023-04-02T00:13:17.396Z,2.99
2023-04-02T00:15:49.549Z,3.05
2023-04-02T00:18:22.281Z,2.94
2023-04-02T00:20:52.916Z,2.86
2023-04-02T00:23:20.049Z,2.58
2023-04-02T00:25:47.395Z,2.96
2023-04-02T00:28:20.690Z,2.98
2023-04-02T00:30:53.145Z,2.94
2023-04-02T00:33:22.891Z,2.66
2023-04-02T00:35:51.189Z,2.85
2023-04-02T00:38:30.396Z,2.74
2023-04-02T00:41:00.662Z,2.66
2023-04-02T00:43:30.809Z,2.82
2023-04-02T00:46:01.524Z,2.83
2023-04-02T00:48:31.505Z,3.09
2023-04-02T00:53:49.218Z,2.96
2023-04-02T00:56:28.018Z,2.76
2023-04-02T00:58:56.841Z,2.73
2023-04-02T01:01:27.614Z,2.90
2023-04-02T01:04:06.810Z,2.90
2023-04-02T01:06:38.911Z,2.69
2023-04-02T01:09:31.546Z,2.60
2023-04-02T01:12:15.026Z,3.02
2023-04-02T01:14:56.920Z,2.94
2023-04-02T01:17:39.048Z,2.94
2023-04-02T01:20:27.183Z,2.90
2023-04-02T01:23:17.143Z,2.44
2023-04-02T01:25:54.105Z,2.93
2023-04-02T01:28:29.647Z,2.93
2023-04-02T01:30:58.989Z,2.57
2023-04-02T01:33:30.627Z,2.94
2023-04-02T01:36:09.807Z,2.94
2023-04-02T01:38:50.515Z,2.93
2023-04-02T01:41:33.629Z,2.99
2023-04-02T01:44:14.449Z,2.66
2023-04-02T01:46:43.330Z,2.77
2023-04-02T01:49:18.175Z,2.76
2023-04-02T01:51:47.473Z,3.03
2023-04-02T01:54:16.923Z,3.11
2023-04-02T01:56:45.857Z,2.96
2023-04-02T01:59:14.566Z,3.01
2023-04-02T02:01:48.679Z,2.24
2023-04-02T02:04:16.945Z,2.51
2023-04-02T02:06:44.000Z,3.01
2023-04-02T02:09:17.988Z,3.01
2023-04-02T02:11:44.685Z,3.00
2023-04-02T02:14:20.841Z,2.98
2023-04-02T02:16:48.513Z,2.94
2023-04-02T02:19:42.735Z,2.92
2023-04-02T02:22:24.211Z,2.88
2023-04-02T02:24:51.516Z,2.76
2023-04-02T02:27:24.053Z,2.97
2023-04-02T02:30:12.428Z,2.76
2023-04-02T02:32:51.830Z,2.83
2023-04-02T02:35:27.273Z,2.35
2023-04-02T02:38:06.626Z,2.70
2023-04-02T02:40:45.645Z,2.75
2023-04-02T02:43:14.798Z,2.77
2023-04-02T02:45:43.309Z,2.58
2023-04-02T02:48:17.033Z,2.41
2023-04-02T02:50:44.907Z,2.57
2023-04-02T02:53:22.682Z,1.70
2023-04-02T02:55:53.951Z,2.52
2023-04-02T02:58:27.579Z,2.29
2023-04-02T03:00:54.493Z,2.27
2023-04-02T03:03:28.223Z,2.30
2023-04-02T03:06:03.538Z,2.39
2023-04-02T03:08:37.271Z,2.53
2023-04-02T03:11:14.565Z,2.44
2023-04-02T03:13:47.539Z,2.47
2023-04-02T03:16:23.205Z,2.51
2023-04-02T03:19:25.131Z,2.43
2023-04-02T03:22:03.593Z,2.15
2023-04-02T03:24:38.118Z,2.31
2023-04-02T03:27:20.526Z,2.34
2023-04-02T03:30:03.325Z,2.21
2023-04-02T03:32:35.034Z,2.34
2023-04-02T03:35:10.867Z,2.33
2023-04-02T03:37:47.305Z,2.34
2023-04-02T03:40:29.255Z,2.42
2023-04-02T03:43:02.742Z,2.05
2023-04-02T03:45:36.727Z,2.19
2023-04-02T03:48:12.387Z,2.43
2023-04-02T03:50:47.672Z,2.53
2023-04-02T03:53:14.268Z,2.13
2023-04-02T03:55:42.760Z,2.25
2023-04-02T03:58:20.168Z,2.03
2023-04-02T04:01:03.421Z,2.45
2023-04-02T04:03:41.991Z,2.53
2023-04-02T04:06:24.149Z,2.33
2023-04-02T04:08:56.068Z,2.57
2023-04-02T04:11:30.162Z,2.51
2023-04-02T04:14:19.890Z,2.48
2023-04-02T04:16:56.567Z,2.46
2023-04-02T04:19:55.099Z,2.34
2023-04-02T04:22:34.161Z,2.33
2023-04-02T04:25:03.199Z,2.05
2023-04-02T04:27:42.851Z,2.30
2023-04-02T04:30:27.489Z,2.43
2023-04-02T04:32:58.623Z,2.41
2023-04-02T04:35:31.405Z,2.54
2023-04-02T04:38:04.940Z,2.27
2023-04-02T04:40:38.163Z,2.75
2023-04-02T04:43:12.587Z,2.58
2023-04-02T04:45:45.051Z,2.62
2023-04-02T04:49:02.314Z,2.69
2023-04-02T04:51:45.350Z,2.79
2023-04-02T04:54:16.300Z,2.85
2023-04-02T04:56:55.266Z,2.51
2023-04-02T04:59:27.554Z,2.93
2023-04-02T05:02:12.589Z,2.98
2023-04-02T05:04:42.657Z,3.03
2023-04-02T05:07:36.491Z,3.17
2023-04-02T05:10:27.800Z,3.19
2023-04-02T05:13:19.764Z,3.00
2023-04-02T05:15:50.791Z,3.41
2023-04-02T05:18:37.022Z,3.46
2023-04-02T05:21:14.185Z,3.77
2023-04-02T05:24:04.545Z,3.87
2023-04-02T05:26:39.355Z,3.96
2023-04-02T05:29:19.192Z,3.96
2023-04-02T05:31:58.958Z,3.86
2023-04-02T05:34:30.028Z,4.06
2023-04-02T05:36:56.837Z,4.05
2023-04-02T05:39:25.477Z,4.21
2023-04-02T05:42:04.849Z,4.14
2023-04-02T05:44:35.026Z,4.24
2023-04-02T05:47:10.286Z,4.29
2023-04-02T05:49:49.483Z,4.30
2023-04-02T05:52:23.638Z,4.49
2023-04-02T05:55:11.537Z,4.60
2023-04-02T05:57:52.875Z,4.52
2023-04-02T06:00:40.259Z,4.70
2023-04-02T06:03:24.370Z,4.39
2023-04-02T06:05:53.208Z,4.76
2023-04-02T06:08:24.922Z,4.80
2023-04-02T06:10:58.844Z,4.98
2023-04-02T06:13:25.964Z,5.02
2023-04-02T06:15:52.522Z,5.03
2023-04-02T06:18:23.588Z,5.24
2023-04-02T06:20:50.329Z,5.07
2023-04-02T06:23:22.190Z,5.32
2023-04-02T06:26:08.042Z,5.59
2023-04-02T06:28:43.264Z,5.64
2023-04-02T06:31:23.382Z,5.52
2023-04-02T06:33:52.554Z,5.55
2023-04-02T06:36:20.660Z,5.49
2023-04-02T06:38:49.394Z,5.51
2023-04-02T06:41:21.709Z,5.66
2023-04-02T06:43:55.552Z,5.60
2023-04-02T06:46:38.010Z,5.38
2023-04-02T06:49:22.151Z,5.65
2023-04-02T06:51:53.196Z,5.69
2023-04-02T06:54:21.217Z,5.56
2023-04-02T06:56:51.637Z,5.74
2023-04-02T06:59:19.683Z,5.75
2023-04-02T07:01:57.561Z,5.78
2023-04-02T07:04:24.839Z,5.94
2023-04-02T07:06:51.538Z,5.97
2023-04-02T07:09:18.148Z,5.80
2023-04-02T07:11:44.950Z,5.81
2023-04-02T07:14:13.258Z,5.43
2023-04-02T07:16:42.693Z,5.79
2023-04-02T07:19:18.391Z,5.78
2023-04-02T07:21:45.210Z,5.83
2023-04-02T07:24:12.107Z,5.57
2023-04-02T07:26:38.958Z,5.56
2023-04-02T07:29:09.914Z,5.58
2023-04-02T07:31:39.271Z,5.60
2023-04-02T07:34:07.190Z,5.34
2023-04-02T07:36:33.940Z,5.55
2023-04-02T07:39:01.049Z,5.52
2023-04-02T07:41:27.736Z,6.00
2023-04-02T07:43:54.302Z,6.06
2023-04-02T07:46:21.004Z,6.15
2023-04-02T07:48:47.822Z,6.14
2023-04-02T07:51:19.318Z,5.93
2023-04-02T07:53:50.558Z,6.08
2023-04-02T07:56:19.827Z,6.07
2023-04-02T07:58:47.132Z,6.24
2023-04-02T08:01:26.601Z,6.40
2023-04-02T08:03:57.744Z,6.50
2023-04-02T08:06:25.443Z,6.49
2023-04-02T08:08:52.436Z,6.43
2023-04-02T08:11:19.150Z,6.23
2023-04-02T08:13:45.836Z,6.45
2023-04-02T08:16:12.678Z,6.70
2023-04-02T08:18:39.519Z,7.04
2023-04-02T08:21:08.898Z,7.22
2023-04-02T08:23:37.233Z,7.26
2023-04-02T08:26:04.576Z,7.46
2023-04-02T08:28:31.144Z,7.54
2023-04-02T08:30:57.791Z,8.05
2023-04-02T08:33:24.442Z,8.52
2023-04-02T08:35:51.337Z,8.60
2023-04-02T08:38:20.040Z,8.53
2023-04-02T08:40:50.604Z,7.86
2023-04-02T08:43:28.963Z,7.92
2023-04-02T08:46:07.893Z,7.43
2023-04-02T08:48:40.831Z,7.28
2023-04-02T08:51:22.118Z,7.66
2023-04-02T08:53:49.451Z,8.16
2023-04-02T08:56:24.233Z,7.99
2023-04-02T08:58:56.163Z,7.99
2023-04-02T09:01:41.729Z,8.25
2023-04-02T09:04:19.052Z,7.65
2023-04-02T09:06:47.301Z,8.21
2023-04-02T09:09:15.291Z,8.12
2023-04-02T09:11:43.999Z,8.06
2023-04-02T09:14:18.159Z,8.52
2023-04-02T09:17:01.199Z,8.44
2023-04-02T09:19:40.525Z,8.55
2023-04-02T09:22:22.951Z,8.40
2023-04-02T09:24:57.851Z,8.63
2023-04-02T09:27:31.177Z,8.31
2023-04-02T09:30:11.097Z,8.68
2023-04-02T09:32:46.638Z,8.97
2023-04-02T09:35:26.272Z,9.16
2023-04-02T09:38:21.955Z,9.05
2023-04-02T09:40:54.745Z,9.29
2023-04-02T09:43:24.798Z,8.99
2023-04-02T09:46:02.465Z,9.37
2023-04-02T09:48:39.293Z,9.43
2023-04-02T09:51:08.291Z,9.43
2023-04-02T09:53:37.589Z,9.21
2023-04-02T09:56:19.556Z,9.23
2023-04-02T09:59:03.353Z,8.93
2023-04-02T10:01:32.179Z,9.02
2023-04-02T10:04:00.203Z,8.95
2023-04-02T10:06:29.401Z,8.87
2023-04-02T10:08:56.654Z,9.14
2023-04-02T10:11:43.697Z,8.79
2023-04-02T10:14:38.436Z,9.24
2023-04-02T10:17:17.335Z,9.53
2023-04-02T10:19:50.714Z,9.42
2023-04-02T10:22:19.650Z,9.55
2023-04-02T10:24:46.519Z,8.89
2023-04-02T10:27:43.425Z,9.41
2023-04-02T10:30:13.792Z,9.50
2023-04-02T10:32:50.488Z,9.45
2023-04-02T10:35:28.208Z,9.51
2023-04-02T10:38:24.687Z,10.54
2023-04-02T10:41:01.035Z,11.47
2023-04-02T10:43:45.786Z,12.53
2023-04-02T10:46:36.890Z,13.15
2023-04-02T10:49:27.821Z,14.05
2023-04-02T10:52:21.350Z,15.43
2023-04-02T10:54:51.285Z,17.32
2023-04-02T10:57:48.550Z,17.09
2023-04-02T11:00:22.815Z,15.92
2023-04-02T11:03:02.492Z,16.78
2023-04-02T11:05:44.420Z,19.62
2023-04-02T11:08:11.090Z,21.93
2023-04-02T11:10:44.724Z,22.83
2023-04-02T11:13:26.914Z,24.84
2023-04-02T11:15:54.204Z,23.83
2023-04-02T11:18:38.720Z,23.50
2023-04-02T11:21:07.875Z,22.78
2023-04-02T11:23:57.243Z,23.44
2023-04-02T11:26:35.076Z,22.48
2023-04-02T11:29:14.128Z,22.69
2023-04-02T11:31:42.840Z,20.27
2023-04-02T11:34:41.282Z,21.05
2023-04-02T11:37:30.976Z,21.06
2023-04-02T11:39:59.881Z,23.58
2023-04-02T11:42:35.115Z,23.08
2023-04-02T11:45:22.203Z,23.82
2023-04-02T11:48:01.341Z,23.49
2023-04-02T11:50:33.774Z,23.17
2023-04-02T11:53:12.597Z,20.70
2023-04-02T11:55:42.221Z,19.66
2023-04-02T11:58:22.917Z,20.34
2023-04-02T12:00:52.452Z,19.30
2023-04-02T12:03:51.516Z,18.34
2023-04-02T12:06:48.965Z,18.56
2023-04-02T12:09:24.550Z,17.99
2023-04-02T12:11:53.906Z,18.23
2023-04-02T12:14:38.485Z,17.86
2023-04-02T12:17:15.902Z,18.71
2023-04-02T12:19:48.440Z,19.70
2023-04-02T12:22:27.990Z,22.15
2023-04-02T12:24:58.893Z,21.20
2023-04-02T12:27:29.449Z,20.12
2023-04-02T12:30:12.049Z,20.18
2023-04-02T12:32:38.788Z,21.39
2023-04-02T12:35:06.422Z,22.32
2023-04-02T12:37:33.211Z,23.23
2023-04-02T12:40:07.233Z,22.44
2023-04-02T12:42:36.389Z,22.52
2023-04-02T12:45:05.656Z,19.97
2023-04-02T12:47:33.119Z,19.01
2023-04-02T12:50:01.556Z,20.26
2023-04-02T12:52:29.887Z,21.00
2023-04-02T12:55:03.633Z,22.02
2023-04-02T12:57:30.291Z,22.41
2023-04-02T13:00:22.746Z,22.03
2023-04-02T13:03:09.371Z,21.95
2023-04-02T13:05:41.336Z,21.86
2023-04-02T13:08:17.142Z,21.37
2023-04-02T13:10:44.835Z,22.45
2023-04-02T13:13:20.366Z,23.28
2023-04-02T13:16:01.226Z,24.32
2023-04-02T13:18:27.928Z,23.99
2023-04-02T13:21:03.513Z,25.48
2023-04-02T13:23:30.077Z,23.42
2023-04-02T13:26:13.432Z,23.20
2023-04-02T13:28:40.233Z,23.56
2023-04-02T13:31:08.868Z,24.43
2023-04-02T13:33:35.433Z,25.73
2023-04-02T13:36:02.153Z,25.45
2023-04-02T13:38:28.864Z,25.48
2023-04-02T13:40:55.563Z,25.71
2023-04-02T13:43:22.250Z,27.09
2023-04-02T13:45:54.537Z,27.67
2023-04-02T13:48:24.773Z,27.09
2023-04-02T13:50:53.610Z,24.60
2023-04-02T13:53:31.831Z,25.71
2023-04-02T13:55:58.742Z,25.95
2023-04-02T13:58:25.760Z,26.51
2023-04-02T14:00:52.780Z,26.42
2023-04-02T14:03:22.258Z,27.67
2023-04-02T14:06:09.188Z,29.29
2023-04-02T14:08:54.485Z,28.04
2023-04-02T14:11:42.650Z,27.83
2023-04-02T14:14:47.071Z,28.07
2023-04-02T14:17:47.768Z,26.70
2023-04-02T14:20:54.375Z,24.75
2023-04-02T14:23:30.558Z,23.75
2023-04-02T14:26:27.545Z,24.67
2023-04-02T14:28:59.201Z,22.75
2023-04-02T14:31:42.071Z,21.52
2023-04-02T14:34:28.854Z,21.50
2023-04-02T14:37:13.948Z,20.85
2023-04-02T14:40:01.771Z,18.01
2023-04-02T14:42:37.637Z,17.96
2023-04-02T14:45:16.939Z,21.96
2023-04-02T14:47:51.994Z,20.66
2023-04-02T14:50:41.699Z,18.13
2023-04-02T14:53:26.613Z,17.16
2023-04-02T14:55:54.993Z,18.27
2023-04-02T14:58:37.378Z,19.44
2023-04-02T15:01:13.999Z,18.59
2023-04-02T15:03:47.339Z,18.54
2023-04-02T15:06:23.624Z,17.11
2023-04-02T15:09:09.479Z,16.51
2023-04-02T15:11:40.653Z,16.42
2023-04-02T15:14:17.631Z,20.20
2023-04-02T15:16:45.222Z,20.11
2023-04-02T15:19:18.947Z,19.98
2023-04-02T15:21:57.494Z,22.29
2023-04-02T15:24:46.469Z,24.25
2023-04-02T15:27:33.049Z,23.95
2023-04-02T15:30:13.237Z,20.94
2023-04-02T15:32:41.977Z,18.06
2023-04-02T15:35:20.544Z,16.45
2023-04-02T15:38:15.750Z,19.31
2023-04-02T15:41:01.842Z,20.62
2023-04-02T15:43:38.390Z,23.36
2023-04-02T15:46:17.342Z,24.51
2023-04-02T15:49:02.395Z,24.10
2023-04-02T15:51:43.601Z,18.61
2023-04-02T15:54:19.789Z,17.74
2023-04-02T15:57:19.880Z,16.18
2023-04-02T16:00:14.876Z,14.57
2023-04-02T16:03:21.055Z,13.57
2023-04-02T16:05:50.931Z,12.62
2023-04-02T16:08:26.622Z,12.71
2023-04-02T16:10:53.260Z,12.22
2023-04-02T16:13:29.154Z,12.19
2023-04-02T16:16:03.675Z,11.85
2023-04-02T16:18:45.162Z,11.49
2023-04-02T16:21:19.136Z,11.15
2023-04-02T16:23:45.835Z,11.14
2023-04-02T16:26:37.333Z,10.83
2023-04-02T16:29:29.411Z,10.27
2023-04-02T16:32:05.974Z,10.59
2023-04-02T16:34:50.068Z,10.47
2023-04-02T16:37:38.664Z,10.27
2023-04-02T16:40:21.096Z,10.11
2023-04-02T16:43:07.066Z,9.95
2023-04-02T16:46:08.256Z,10.01
2023-04-02T16:48:47.752Z,9.31
2023-04-02T16:51:44.428Z,9.51
2023-04-02T16:54:25.549Z,9.68
2023-04-02T16:57:02.528Z,9.57
2023-04-02T16:59:56.399Z,9.33
2023-04-02T17:02:44.797Z,9.23
2023-04-02T17:05:51.207Z,8.91
2023-04-02T17:08:22.646Z,9.17
2023-04-02T17:10:54.745Z,9.10
2023-04-02T17:13:25.105Z,9.12
2023-04-02T17:16:21.903Z,9.00
2023-04-02T17:18:52.482Z,8.70
2023-04-02T17:21:24.854Z,8.41
2023-04-02T17:23:57.355Z,8.43
2023-04-02T17:26:34.155Z,8.30
2023-04-02T17:29:07.001Z,7.96
2023-04-02T17:31:37.616Z,8.16
2023-04-02T17:34:15.629Z,8.17
2023-04-02T17:37:10.471Z,8.10
2023-04-02T17:39:47.386Z,7.91
2023-04-02T17:42:52.781Z,7.69
2023-04-02T17:45:38.605Z,7.63
2023-04-02T17:48:26.071Z,7.73
2023-04-02T17:51:01.457Z,7.51
2023-04-02T17:53:43.534Z,7.44
2023-04-02T17:56:29.064Z,7.41
2023-04-02T17:59:14.477Z,7.28
2023-04-02T18:01:54.985Z,7.14
2023-04-02T18:04:39.380Z,6.98
2023-04-02T18:07:43.974Z,6.96
2023-04-02T18:10:22.662Z,7.02
2023-04-02T18:12:55.706Z,6.90
2023-04-02T18:15:34.372Z,6.92
2023-04-02T18:18:05.403Z,6.82
2023-04-02T18:20:39.039Z,6.63
2023-04-02T18:23:36.809Z,6.75
2023-04-02T18:26:13.237Z,6.77
2023-04-02T18:28:55.539Z,6.63
2023-04-02T18:31:40.573Z,5.88
2023-04-02T18:34:45.030Z,6.38
2023-04-02T18:37:20.195Z,6.07
2023-04-02T18:39:58.112Z,6.29
2023-04-02T18:42:47.179Z,6.26
2023-04-02T18:45:46.887Z,5.88
2023-04-02T18:48:28.571Z,5.66
2023-04-02T18:50:55.619Z,6.01
2023-04-02T18:53:25.686Z,6.04
2023-04-02T18:55:57.106Z,5.86
2023-04-02T18:58:29.975Z,5.63
2023-04-02T19:00:58.654Z,5.25
2023-04-02T19:03:28.669Z,5.68
2023-04-02T19:06:03.347Z,5.68
2023-04-02T19:08:36.432Z,5.66
2023-04-02T19:11:19.288Z,5.65
2023-04-02T19:13:48.526Z,5.58
2023-04-02T19:16:37.071Z,5.63
2023-04-02T19:19:17.554Z,5.47
2023-04-02T19:22:01.241Z,5.60
2023-04-02T19:24:55.186Z,5.51
2023-04-02T19:27:34.014Z,5.46
2023-04-02T19:30:09.327Z,5.33
2023-04-02T19:32:48.128Z,5.36
2023-04-02T19:35:28.584Z,5.25
2023-04-02T19:38:25.308Z,5.29
2023-04-02T19:41:03.866Z,5.19
2023-04-02T19:43:30.564Z,5.13
2023-04-02T19:45:57.524Z,5.10
2023-04-02T19:48:35.596Z,4.82
2023-04-02T19:51:02.182Z,4.94
2023-04-02T19:53:28.780Z,4.85
2023-04-02T19:55:57.790Z,4.82
2023-04-02T19:58:32.025Z,4.76
2023-04-02T20:00:58.937Z,4.79
2023-04-02T20:03:25.675Z,4.78
2023-04-02T20:05:53.124Z,4.76
2023-04-02T20:08:19.949Z,4.36
2023-04-02T20:10:47.525Z,4.68
2023-04-02T20:13:14.090Z,4.59
2023-04-02T20:15:41.287Z,4.58
2023-04-02T20:18:08.132Z,4.25
2023-04-02T20:20:35.037Z,4.54
2023-04-02T20:23:02.155Z,4.53
2023-04-02T20:25:28.902Z,4.51
2023-04-02T20:27:55.669Z,3.87
2023-04-02T20:30:22.285Z,4.29
2023-04-02T20:32:49.417Z,4.45
2023-04-02T20:35:16.629Z,4.23
2023-04-02T20:37:43.306Z,4.36
2023-04-02T20:40:10.992Z,4.36
2023-04-02T20:42:37.675Z,4.31
2023-04-02T20:45:06.317Z,4.23
2023-04-02T20:47:32.944Z,4.24
2023-04-02T20:49:59.540Z,4.11
2023-04-02T20:52:28.083Z,4.19
2023-04-02T20:54:54.767Z,4.16
2023-04-02T20:57:22.246Z,4.09
2023-04-02T20:59:48.997Z,3.88
2023-04-02T21:02:15.938Z,4.02
2023-04-02T21:04:42.548Z,3.92
2023-04-02T21:07:09.171Z,3.94
2023-04-02T21:09:35.865Z,3.84
2023-04-02T21:12:02.440Z,3.88
2023-04-02T21:14:31.523Z,3.62
2023-04-02T21:16:58.148Z,3.82
2023-04-02T21:19:24.786Z,3.79
2023-04-02T21:21:54.126Z,3.71
2023-04-02T21:24:20.803Z,3.70
2023-04-02T21:26:47.393Z,3.73
2023-04-02T21:29:13.995Z,3.51
2023-04-02T21:31:41.514Z,3.60
2023-04-02T21:34:09.693Z,3.59
2023-04-02T21:36:39.499Z,3.61
2023-04-02T21:39:09.226Z,3.63
2023-04-02T21:41:41.223Z,3.52
2023-04-02T21:44:09.341Z,3.49
2023-04-02T21:46:39.276Z,3.43
2023-04-02T21:49:08.201Z,3.41
2023-04-02T21:51:36.387Z,3.35
2023-04-02T21:54:03.848Z,3.33
2023-04-02T21:56:32.752Z,3.23
2023-04-02T21:59:02.032Z,3.21
2023-04-02T22:01:32.975Z,3.23
2023-04-02T22:04:02.168Z,2.93
2023-04-02T22:06:31.109Z,2.79
2023-04-02T22:09:01.068Z,3.17
2023-04-02T22:11:38.566Z,2.92
2023-04-02T22:14:06.070Z,3.13
2023-04-02T22:16:34.417Z,3.06
2023-04-02T22:19:03.553Z,3.12
2023-04-02T22:21:31.269Z,3.13
2023-04-02T22:24:05.473Z,2.86
2023-04-02T22:26:33.282Z,2.86
2023-04-02T22:29:00.508Z,2.58
2023-04-02T22:31:29.340Z,2.93
2023-04-02T22:33:57.578Z,2.84
2023-04-02T22:36:25.998Z,2.88
2023-04-02T22:38:56.858Z,2.75
2023-04-02T22:41:32.126Z,2.78
2023-04-02T22:44:03.547Z,2.72
2023-04-02T22:46:31.269Z,2.71
2023-04-02T22:48:58.442Z,2.70
2023-04-02T22:51:26.162Z,2.70
2023-04-02T22:53:54.543Z,2.36
2023-04-02T22:56:23.992Z,2.25
2023-04-02T22:58:50.802Z,2.69
2023-04-02T23:01:33.513Z,2.61
2023-04-02T23:04:00.686Z,2.71
2023-04-02T23:06:28.047Z,2.55
2023-04-02T23:08:54.759Z,2.57
2023-04-02T23:11:24.713Z,2.49
2023-04-02T23:13:53.142Z,2.45
2023-04-02T23:16:20.679Z,2.48
2023-04-02T23:18:48.491Z,2.48
2023-04-02T23:21:16.935Z,2.47
2023-04-02T23:23:46.352Z,2.44
2023-04-02T23:26:16.245Z,2.38
2023-04-02T23:28:42.904Z,1.88
2023-04-02T23:31:13.883Z,2.29
2023-04-02T23:33:40.561Z,2.33
2023-04-02T23:36:09.302Z,2.25
2023-04-02T23:38:36.303Z,2.27
2023-04-02T23:41:03.020Z,2.18
2023-04-02T23:43:29.614Z,2.21
2023-04-02T23:45:56.290Z,2.19
2023-04-02T23:48:22.905Z,1.82
2023-04-02T23:50:49.516Z,1.84
2023-04-02T23:53:16.822Z,2.17
2023-04-02T23:55:43.479Z,2.27
2023-04-02T23:58:10.160Z,2.04
